sensor_id;sensor_type;location;lat;lon;timestamp;P1;P2;P0
64229;PMS5003;50547;49.498;0.092;2024-02-23T18:35:11;4;4;
64229;PMS5003;50547;49.498;0.092;2024-02-23T18:37:40;4;4;
64229;PMS5003;50547;49.498;0.092;2024-02-23T18:40:10;4;4;
64229;PMS5003;50547;49.498;0.092;2024-02-23T18:42:40;8;8;
64229;PMS5003;50547;49.498;0.092;2024-02-23T18:45:09;7;7;
64229;PMS5003;50547;49.498;0.092;2024-02-23T18:47:38;6;6;
64229;PMS5003;50547;49.498;0.092;2024-02-23T18:50:08;7;7;
64229;PMS5003;50547;49.498;0.092;2024-02-23T18:52:35;8;8;
64229;PMS5003;50547;49.498;0.092;2024-02-23T18:55:05;4;4;
64229;PMS5003;50547;49.498;0.092;2024-02-23T18:57:34;4;4;
64229;PMS5003;50547;49.498;0.092;2024-02-23T19:00:04;4;4;
64229;PMS5003;50547;49.498;0.092;2024-02-23T19:02:34;4;4;
64229;PMS5003;50547;49.498;0.092;2024-02-23T19:05:03;4;4;
64229;PMS5003;50547;49.498;0.092;2024-02-23T19:07:33;3;3;
64229;PMS5003;50547;49.498;0.092;2024-02-23T19:10:02;3;3;
64229;PMS5003;50547;49.498;0.092;2024-02-23T19:12:31;4;4;
64229;PMS5003;50547;49.498;0.092;2024-02-23T19:15:00;3;3;
64229;PMS5003;50547;49.498;0.092;2024-02-23T19:17:29;3;3;
64229;PMS5003;50547;49.498;0.092;2024-02-23T19:19:58;4;4;
64229;PMS5003;50547;49.498;0.092;2024-02-23T19:22:27;4;4;
64229;PMS5003;50547;49.498;0.092;2024-02-23T19:24:56;4;4;
64229;PMS5003;50547;49.498;0.092;2024-02-23T19:27:27;4;4;
64229;PMS5003;50547;49.498;0.092;2024-02-23T19:29:56;6;6;
64229;PMS5003;50547;49.498;0.092;2024-02-23T19:32:25;4;4;
64229;PMS5003;50547;49.498;0.092;2024-02-23T19:34:54;4;4;
64229;PMS5003;50547;49.498;0.092;2024-02-23T19:37:24;4;4;
64229;PMS5003;50547;49.498;0.092;2024-02-23T19:39:53;4;4;
64229;PMS5003;50547;49.498;0.092;2024-02-23T19:42:22;4;4;
64229;PMS5003;50547;49.498;0.092;2024-02-23T19:44:51;5;5;
64229;PMS5003;50547;49.498;0.092;2024-02-23T19:47:20;4;4;
64229;PMS5003;50547;49.498;0.092;2024-02-23T19:49:48;3;3;
64229;PMS5003;50547;49.498;0.092;2024-02-23T19:52:17;4;4;
64229;PMS5003;50547;49.498;0.092;2024-02-23T19:54:46;4;4;
64229;PMS5003;50547;49.498;0.092;2024-02-23T19:57:15;4;4;
64229;PMS5003;50547;49.498;0.092;2024-02-23T19:59:44;4;4;
64229;PMS5003;50547;49.498;0.092;2024-02-23T20:02:13;8;8;
64229;PMS5003;50547;49.498;0.092;2024-02-23T20:04:43;6;6;
64229;PMS5003;50547;49.498;0.092;2024-02-23T20:07:09;4;4;
64229;PMS5003;50547;49.498;0.092;2024-02-23T20:09:38;5;5;
64229;PMS5003;50547;49.498;0.092;2024-02-23T20:12:08;3;3;
64229;PMS5003;50547;49.498;0.092;2024-02-23T20:14:38;4;4;
64229;PMS5003;50547;49.498;0.092;2024-02-23T20:17:07;4;4;
64229;PMS5003;50547;49.498;0.092;2024-02-23T20:19:37;4;4;
64229;PMS5003;50547;49.498;0.092;2024-02-23T20:22:06;6;6;
64229;PMS5003;50547;49.498;0.092;2024-02-23T20:24:35;4;4;
64229;PMS5003;50547;49.498;0.092;2024-02-23T20:27:05;4;4;
64229;PMS5003;50547;49.498;0.092;2024-02-23T20:29:34;4;4;
64229;PMS5003;50547;49.498;0.092;2024-02-23T20:32:03;4;4;
64229;PMS5003;50547;49.498;0.092;2024-02-23T20:34:33;5;5;
64229;PMS5003;50547;49.498;0.092;2024-02-23T20:37:02;5;5;
64229;PMS5003;50547;49.498;0.092;2024-02-23T20:39:31;4;4;
64229;PMS5003;50547;49.498;0.092;2024-02-23T20:42:00;5;5;
64229;PMS5003;50547;49.498;0.092;2024-02-23T20:44:30;4;4;
64229;PMS5003;50547;49.498;0.092;2024-02-23T20:46:55;4;4;
64229;PMS5003;50547;49.498;0.092;2024-02-23T20:49:24;4;4;
64229;PMS5003;50547;49.498;0.092;2024-02-23T20:51:53;4;4;
64229;PMS5003;50547;49.498;0.092;2024-02-23T20:54:23;4;4;
64229;PMS5003;50547;49.498;0.092;2024-02-23T20:56:52;4;4;
64229;PMS5003;50547;49.498;0.092;2024-02-23T20:59:32;4;4;
64229;PMS5003;50547;49.498;0.092;2024-02-23T21:02:01;5;5;
64229;PMS5003;50547;49.498;0.092;2024-02-23T21:04:31;4;4;
64229;PMS5003;50547;49.498;0.092;2024-02-23T21:07:01;4;4;
64229;PMS5003;50547;49.498;0.092;2024-02-23T21:09:30;4;4;
64229;PMS5003;50547;49.498;0.092;2024-02-23T21:11:59;4;4;
64229;PMS5003;50547;49.498;0.092;2024-02-23T21:14:28;4;4;
64229;PMS5003;50547;49.498;0.092;2024-02-23T21:16:58;5;5;
64229;PMS5003;50547;49.498;0.092;2024-02-23T21:19:37;5;5;
64229;PMS5003;50547;49.498;0.092;2024-02-23T21:22:06;6;6;
64229;PMS5003;50547;49.498;0.092;2024-02-23T21:24:35;5;5;
64229;PMS5003;50547;49.498;0.092;2024-02-23T21:27:04;11;11;
64229;PMS5003;50547;49.498;0.092;2024-02-23T21:29:30;5;5;
64229;PMS5003;50547;49.498;0.092;2024-02-23T21:32:15;9;9;
64229;PMS5003;50547;49.498;0.092;2024-02-23T21:34:44;7;7;
64229;PMS5003;50547;49.498;0.092;2024-02-23T21:37:18;7;7;
64229;PMS5003;50547;49.498;0.092;2024-02-23T21:39:47;5;5;
64229;PMS5003;50547;49.498;0.092;2024-02-23T21:42:16;7;7;
64229;PMS5003;50547;49.498;0.092;2024-02-23T21:44:46;5;5;
64229;PMS5003;50547;49.498;0.092;2024-02-23T21:47:15;5;5;
64229;PMS5003;50547;49.498;0.092;2024-02-23T21:49:44;6;6;
64229;PMS5003;50547;49.498;0.092;2024-02-23T21:52:12;6;6;
64229;PMS5003;50547;49.498;0.092;2024-02-23T21:54:46;7;7;
64229;PMS5003;50547;49.498;0.092;2024-02-23T21:57:15;6;6;
64229;PMS5003;50547;49.498;0.092;2024-02-23T21:59:44;6;6;
64229;PMS5003;50547;49.498;0.092;2024-02-23T22:02:13;7;7;
64229;PMS5003;50547;49.498;0.092;2024-02-23T22:04:42;7;7;
64229;PMS5003;50547;49.498;0.092;2024-02-23T22:07:11;6;6;
64229;PMS5003;50547;49.498;0.092;2024-02-23T22:09:38;5;5;
64229;PMS5003;50547;49.498;0.092;2024-02-23T22:12:08;6;6;
64229;PMS5003;50547;49.498;0.092;2024-02-23T22:14:37;6;6;
64229;PMS5003;50547;49.498;0.092;2024-02-23T22:17:06;7;7;
64229;PMS5003;50547;49.498;0.092;2024-02-23T22:19:35;6;6;
64229;PMS5003;50547;49.498;0.092;2024-02-23T22:22:04;6;6;
64229;PMS5003;50547;49.498;0.092;2024-02-23T22:24:33;7;7;
64229;PMS5003;50547;49.498;0.092;2024-02-23T22:27:13;6;6;
64229;PMS5003;50547;49.498;0.092;2024-02-23T22:29:42;7;7;
64229;PMS5003;50547;49.498;0.092;2024-02-23T22:32:11;6;6;
64229;PMS5003;50547;49.498;0.092;2024-02-23T22:34:40;7;7;
64229;PMS5003;50547;49.498;0.092;2024-02-23T22:37:07;7;7;
64229;PMS5003;50547;49.498;0.092;2024-02-23T22:39:34;8;8;
64229;PMS5003;50547;49.498;0.092;2024-02-23T22:42:03;6;6;
64229;PMS5003;50547;49.498;0.092;2024-02-23T22:44:33;7;7;
64229;PMS5003;50547;49.498;0.092;2024-02-23T22:47:02;7;7;
64229;PMS5003;50547;49.498;0.092;2024-02-23T22:49:31;7;7;
64229;PMS5003;50547;49.498;0.092;2024-02-23T22:52:00;7;7;
64229;PMS5003;50547;49.498;0.092;2024-02-23T22:54:29;6;6;
64229;PMS5003;50547;49.498;0.092;2024-02-23T22:56:58;7;7;
64229;PMS5003;50547;49.498;0.092;2024-02-23T22:59:24;5;5;
64229;PMS5003;50547;49.498;0.092;2024-02-23T23:01:53;7;7;
64229;PMS5003;50547;49.498;0.092;2024-02-23T23:04:22;7;7;
64229;PMS5003;50547;49.498;0.092;2024-02-23T23:06:51;7;7;
64229;PMS5003;50547;49.498;0.092;2024-02-23T23:09:21;8;8;
64229;PMS5003;50547;49.498;0.092;2024-02-23T23:11:50;8;8;
64229;PMS5003;50547;49.498;0.092;2024-02-23T23:14:19;7;7;
64229;PMS5003;50547;49.498;0.092;2024-02-23T23:16:49;7;7;
64229;PMS5003;50547;49.498;0.092;2024-02-23T23:19:18;7;7;
64229;PMS5003;50547;49.498;0.092;2024-02-23T23:21:47;7;7;
64229;PMS5003;50547;49.498;0.092;2024-02-23T23:24:16;7;7;
64229;PMS5003;50547;49.498;0.092;2024-02-23T23:26:45;7;7;
64229;PMS5003;50547;49.498;0.092;2024-02-23T23:29:15;8;8;
64229;PMS5003;50547;49.498;0.092;2024-02-23T23:31:44;9;9;
64229;PMS5003;50547;49.498;0.092;2024-02-23T23:34:13;8;8;
64229;PMS5003;50547;49.498;0.092;2024-02-23T23:36:42;7;7;
64229;PMS5003;50547;49.498;0.092;2024-02-23T23:39:11;8;8;
64229;PMS5003;50547;49.498;0.092;2024-02-23T23:41:41;8;8;
64229;PMS5003;50547;49.498;0.092;2024-02-23T23:44:10;8;8;
64229;PMS5003;50547;49.498;0.092;2024-02-23T23:46:39;8;8;
64229;PMS5003;50547;49.498;0.092;2024-02-23T23:49:08;8;8;
64229;PMS5003;50547;49.498;0.092;2024-02-23T23:51:37;7;7;
64229;PMS5003;50547;49.498;0.092;2024-02-23T23:54:06;8;8;
64229;PMS5003;50547;49.498;0.092;2024-02-23T23:56:36;7;7;
64229;PMS5003;50547;49.498;0.092;2024-02-23T23:59:05;7;7;
